Time;durP1;ratioP1;P1;durP2;ratioP2;P2;SDS_P1;SDS_P2;PMS_P1;PMS_P2;Temp;Humidity;BMP_temperature;BMP_pressure;BME280_temperature;BME280_humidity;BME280_pressure;Samples;Min_cycle;Max_cycle;Signal;HPM_P1;HPM_P2
2021/10/15 00:00:37;;;;;;;9.75;6.28;;;10.80;62.80;;;;;;5052415;28;20052;-67
2021/10/15 00:03:02;;;;;;;11.00;6.20;;;10.80;63.00;;;;;;5053103;28;20056;-66
2021/10/15 00:05:29;;;;;;;10.45;5.78;;;10.70;63.30;;;;;;5052330;28;20074;-66
2021/10/15 00:07:55;;;;;;;7.88;5.07;;;10.70;63.40;;;;;;5052191;28;20028;-66
2021/10/15 00:10:21;;;;;;;8.30;4.93;;;10.70;63.40;;;;;;5052742;28;20029;-66
2021/10/15 00:12:47;;;;;;;8.10;4.43;;;10.70;63.30;;;;;;5052394;28;20025;-66
2021/10/15 00:15:13;;;;;;;7.35;4.63;;;10.60;63.40;;;;;;5053147;28;20024;-66
2021/10/15 00:17:38;;;;;;;5.93;3.90;;;10.50;63.40;;;;;;5052917;28;20067;-66
2021/10/15 00:20:05;;;;;;;9.07;4.07;;;10.50;63.70;;;;;;5052223;28;20032;-66
2021/10/15 00:22:31;;;;;;;5.80;3.30;;;10.50;63.90;;;;;;5052218;28;20086;-66
2021/10/15 00:24:57;;;;;;;6.80;3.73;;;10.50;64.10;;;;;;5052750;28;20025;-66
2021/10/15 00:27:22;;;;;;;5.20;3.07;;;10.50;64.40;;;;;;5052609;28;20044;-66
2021/10/15 00:29:48;;;;;;;6.75;3.60;;;10.50;64.30;;;;;;5051944;28;20111;-67
2021/10/15 00:32:14;;;;;;;4.57;3.00;;;10.50;64.00;;;;;;5051774;28;20087;-66
2021/10/15 00:34:39;;;;;;;8.00;3.60;;;10.50;64.00;;;;;;5051662;28;20037;-66
2021/10/15 00:37:06;;;;;;;7.85;3.75;;;10.40;63.90;;;;;;5052044;28;20071;-66
2021/10/15 00:39:31;;;;;;;5.65;3.05;;;10.40;64.20;;;;;;5052113;28;20025;-66
2021/10/15 00:41:57;;;;;;;5.73;3.50;;;10.40;64.20;;;;;;5051916;28;20025;-68
2021/10/15 00:44:23;;;;;;;5.23;2.87;;;10.40;64.70;;;;;;5051907;28;20075;-66
2021/10/15 00:46:49;;;;;;;5.63;3.20;;;10.40;64.40;;;;;;5052020;28;20081;-66
2021/10/15 00:49:15;;;;;;;4.83;3.17;;;10.40;64.40;;;;;;5051002;28;20037;-66
2021/10/15 00:51:43;;;;;;;6.63;3.63;;;10.40;64.40;;;;;;5051658;28;20025;-66
2021/10/15 00:54:11;;;;;;;7.57;4.10;;;10.40;64.30;;;;;;5051403;28;20584;-66
2021/10/15 00:56:37;;;;;;;6.83;3.33;;;10.30;64.70;;;;;;5051450;28;20561;-66
2021/10/15 00:59:03;;;;;;;5.88;3.60;;;10.40;64.40;;;;;;5048987;28;20061;-66
2021/10/15 01:01:30;;;;;;;5.23;3.40;;;10.40;64.60;;;;;;5049112;28;20460;-66
2021/10/15 01:03:59;;;;;;;7.00;4.40;;;10.30;64.30;;;;;;5049021;28;20021;-66
2021/10/15 01:06:26;;;;;;;7.10;3.40;;;10.20;64.80;;;;;;5051291;28;20092;-66
2021/10/15 01:08:53;;;;;;;6.50;4.17;;;10.20;64.70;;;;;;5051237;28;20021;-66
2021/10/15 01:11:18;;;;;;;7.27;3.90;;;10.20;64.40;;;;;;5050961;28;20533;-66
2021/10/15 01:13:45;;;;;;;6.87;3.60;;;10.10;64.40;;;;;;5050916;28;20116;-66
2021/10/15 01:16:12;;;;;;;6.10;3.57;;;10.10;64.80;;;;;;5052009;28;20029;-66
2021/10/15 01:18:40;;;;;;;6.03;3.80;;;10.00;65.00;;;;;;5051387;28;20025;-66
2021/10/15 01:21:06;;;;;;;6.03;3.60;;;10.00;64.90;;;;;;5051261;28;20407;-66
2021/10/15 01:23:32;;;;;;;8.77;3.87;;;10.00;65.00;;;;;;5050831;28;20031;-66
2021/10/15 01:25:58;;;;;;;6.13;3.70;;;10.00;65.50;;;;;;5050820;28;20017;-67
2021/10/15 01:28:25;;;;;;;5.13;2.93;;;10.00;65.30;;;;;;5051034;28;20474;-67
2021/10/15 01:30:51;;;;;;;6.27;2.80;;;10.00;65.50;;;;;;5051415;28;20029;-66
2021/10/15 01:33:17;;;;;;;7.53;2.83;;;10.00;65.70;;;;;;5051007;28;20041;-66
2021/10/15 01:35:43;;;;;;;5.67;2.80;;;10.00;65.50;;;;;;5051347;28;20027;-66
2021/10/15 01:38:09;;;;;;;7.17;2.87;;;10.10;65.80;;;;;;5051283;28;20025;-67
2021/10/15 01:40:36;;;;;;;4.43;2.47;;;10.10;65.70;;;;;;5050914;28;20060;-66
2021/10/15 01:43:02;;;;;;;4.17;2.43;;;10.10;65.70;;;;;;5052603;28;20017;-66
2021/10/15 01:45:30;;;;;;;3.70;2.50;;;10.10;65.80;;;;;;5055120;28;20040;-66
2021/10/15 01:47:57;;;;;;;6.40;2.80;;;10.10;65.50;;;;;;5054009;28;20044;-66
2021/10/15 01:50:24;;;;;;;5.87;2.90;;;10.10;65.50;;;;;;5055265;28;20063;-66
2021/10/15 01:52:51;;;;;;;4.20;2.90;;;10.10;65.30;;;;;;5054756;28;20075;-67
2021/10/15 01:55:18;;;;;;;5.23;2.60;;;10.20;65.40;;;;;;5054822;28;20032;-68
2021/10/15 01:57:44;;;;;;;4.00;2.37;;;10.20;65.60;;;;;;5054879;28;20029;-66
2021/10/15 02:00:11;;;;;;;4.60;2.43;;;10.20;65.40;;;;;;5054735;28;20394;-67
2021/10/15 02:02:37;;;;;;;5.07;2.90;;;10.20;65.40;;;;;;5055508;28;20033;-66
2021/10/15 02:05:04;;;;;;;8.20;2.37;;;10.20;65.30;;;;;;5054398;28;20381;-66
2021/10/15 02:07:30;;;;;;;8.60;2.63;;;10.20;65.20;;;;;;5055228;28;20064;-66
2021/10/15 02:09:55;;;;;;;7.13;2.80;;;10.20;65.20;;;;;;5054826;28;20531;-66
2021/10/15 02:12:21;;;;;;;7.40;2.70;;;10.20;65.20;;;;;;5054594;28;20351;-66
2021/10/15 02:14:47;;;;;;;5.07;3.00;;;10.20;65.20;;;;;;5054815;28;20381;-66
2021/10/15 02:17:13;;;;;;;4.40;2.45;;;10.20;65.20;;;;;;5054934;28;20096;-67
2021/10/15 02:19:39;;;;;;;3.80;2.30;;;10.20;65.20;;;;;;5054763;28;20025;-66
2021/10/15 02:22:05;;;;;;;5.23;2.33;;;10.20;65.00;;;;;;5054606;28;20083;-66
2021/10/15 02:24:31;;;;;;;5.77;2.40;;;10.20;64.70;;;;;;5054353;28;20028;-67
2021/10/15 02:26:57;;;;;;;5.83;2.80;;;10.20;64.90;;;;;;5054781;28;20021;-66
2021/10/15 02:29:22;;;;;;;4.87;2.97;;;10.20;64.30;;;;;;5067783;22;20027;-70
2021/10/15 02:31:48;;;;;;;8.40;3.00;;;10.10;64.60;;;;;;5014317;28;20037;-73
2021/10/15 02:34:17;;;;;;;7.53;3.77;;;10.10;65.20;;;;;;5016201;28;20041;-70
2021/10/15 02:36:43;;;;;;;7.10;4.17;;;10.10;65.20;;;;;;5016371;28;20057;-71
2021/10/15 02:39:09;;;;;;;7.03;4.00;;;10.00;64.40;;;;;;5016054;28;20107;-70
2021/10/15 02:41:37;;;;;;;6.90;3.97;;;9.90;65.00;;;;;;5015899;28;20037;-69
2021/10/15 02:44:10;;;;;;;4.60;3.03;;;9.90;65.00;;;;;;5016066;28;20018;-71
2021/10/15 02:46:36;;;;;;;5.70;3.50;;;9.80;65.30;;;;;;5016030;28;20021;-70
2021/10/15 02:49:03;;;;;;;6.63;3.80;;;9.80;65.00;;;;;;5015538;28;20432;-70
2021/10/15 02:51:29;;;;;;;6.33;3.73;;;9.70;65.20;;;;;;5015584;28;20030;-70
2021/10/15 02:53:55;;;;;;;6.03;3.20;;;9.70;65.40;;;;;;5015897;28;20072;-70
2021/10/15 02:56:21;;;;;;;12.33;4.03;;;9.70;65.30;;;;;;5015886;28;20101;-71
2021/10/15 02:58:47;;;;;;;10.57;3.67;;;9.60;65.00;;;;;;5015740;28;20045;-71
2021/10/15 03:01:13;;;;;;;11.50;4.20;;;9.60;65.70;;;;;;5015758;28;20025;-70
2021/10/15 03:03:39;;;;;;;9.07;3.97;;;9.60;65.70;;;;;;5015798;28;20084;-70
2021/10/15 03:06:05;;;;;;;20.90;5.23;;;9.50;65.80;;;;;;5015766;28;20029;-70
2021/10/15 03:08:31;;;;;;;18.03;3.93;;;9.50;65.40;;;;;;5015782;28;20026;-70
2021/10/15 03:10:57;;;;;;;25.63;4.53;;;9.50;65.60;;;;;;5015508;28;20100;-70
2021/10/15 03:13:22;;;;;;;24.43;4.20;;;9.50;65.60;;;;;;5015264;28;20038;-70
2021/10/15 03:15:48;;;;;;;15.33;3.90;;;9.40;65.70;;;;;;5015554;28;20034;-70
2021/10/15 03:18:14;;;;;;;23.00;4.30;;;9.40;66.50;;;;;;5014149;28;20030;-70
2021/10/15 03:20:40;;;;;;;9.47;4.03;;;9.40;65.80;;;;;;5015359;28;20548;-70
2021/10/15 03:23:06;;;;;;;10.80;3.90;;;9.40;66.20;;;;;;5015030;28;20459;-70
2021/10/15 03:25:32;;;;;;;12.83;4.33;;;9.30;65.90;;;;;;5015351;28;20368;-70
2021/10/15 03:27:58;;;;;;;10.53;4.30;;;9.30;66.00;;;;;;5015359;28;20037;-70
2021/10/15 03:30:24;;;;;;;9.10;4.07;;;9.30;66.10;;;;;;5014858;28;20062;-71
2021/10/15 03:32:49;;;;;;;12.57;4.70;;;9.30;66.60;;;;;;5015021;28;20560;-70
2021/10/15 03:35:15;;;;;;;7.43;4.27;;;9.30;66.30;;;;;;5015284;28;20026;-69
2021/10/15 03:37:41;;;;;;;6.97;4.67;;;9.20;66.00;;;;;;5014157;28;20045;-70
2021/10/15 03:40:08;;;;;;;7.07;4.00;;;9.20;66.60;;;;;;5015052;28;20040;-70
2021/10/15 03:42:34;;;;;;;5.50;4.00;;;9.20;66.70;;;;;;5015023;28;20026;-70
2021/10/15 03:44:59;;;;;;;8.73;4.10;;;9.20;66.20;;;;;;5014786;28;20034;-70
2021/10/15 03:47:25;;;;;;;5.67;3.60;;;9.10;66.70;;;;;;5013895;28;20026;-71
2021/10/15 03:49:51;;;;;;;11.50;3.60;;;9.10;67.10;;;;;;5013590;28;20057;-69
2021/10/15 03:52:17;;;;;;;8.33;3.43;;;9.10;67.30;;;;;;5014858;28;20025;-69
2021/10/15 03:54:42;;;;;;;7.23;3.23;;;9.10;67.40;;;;;;5014308;28;20371;-71
2021/10/15 03:57:08;;;;;;;3.77;2.70;;;9.10;67.40;;;;;;5014747;28;20013;-70
2021/10/15 03:59:34;;;;;;;6.77;3.10;;;9.10;67.40;;;;;;5014829;28;20402;-70
2021/10/15 04:01:59;;;;;;;6.43;3.20;;;9.20;67.70;;;;;;5014715;28;20084;-70
2021/10/15 04:04:25;;;;;;;5.37;2.90;;;9.20;67.60;;;;;;5014479;28;20096;-70
2021/10/15 04:06:51;;;;;;;6.53;2.97;;;9.20;67.60;;;;;;5014328;28;20053;-69
2021/10/15 04:09:17;;;;;;;7.73;3.03;;;9.20;67.70;;;;;;5014381;28;20534;-70
2021/10/15 04:11:42;;;;;;;4.23;2.57;;;9.30;68.00;;;;;;5014388;28;20018;-71
2021/10/15 04:14:08;;;;;;;6.43;3.13;;;9.30;67.90;;;;;;5014318;28;20038;-70
2021/10/15 04:16:34;;;;;;;7.30;2.83;;;9.30;67.70;;;;;;5014503;28;20030;-70
2021/10/15 04:19:00;;;;;;;3.87;2.70;;;9.30;67.70;;;;;;5013133;28;20029;-70
2021/10/15 04:21:25;;;;;;;5.27;2.60;;;9.40;67.80;;;;;;5014591;28;20208;-71
2021/10/15 04:23:51;;;;;;;5.17;2.70;;;9.40;67.60;;;;;;5014514;28;20117;-70
2021/10/15 04:26:17;;;;;;;6.93;3.17;;;9.40;67.60;;;;;;5014167;28;20025;-70
2021/10/15 04:28:43;;;;;;;4.40;2.63;;;9.40;68.10;;;;;;5014150;28;20029;-70
2021/10/15 04:31:09;;;;;;;4.27;2.60;;;9.40;67.80;;;;;;5013828;28;20078;-70
2021/10/15 04:33:35;;;;;;;5.90;2.50;;;9.40;67.20;;;;;;5014102;28;20069;-69
2021/10/15 04:36:00;;;;;;;5.47;3.30;;;9.40;67.00;;;;;;5013812;28;20449;-72
2021/10/15 04:38:26;;;;;;;9.90;2.90;;;9.40;67.40;;;;;;5013955;28;20096;-70
2021/10/15 04:40:52;;;;;;;6.23;3.07;;;9.30;67.30;;;;;;5013806;28;20030;-70
2021/10/15 04:43:18;;;;;;;6.17;3.00;;;9.40;67.30;;;;;;5013909;28;20065;-70
2021/10/15 04:45:43;;;;;;;6.70;3.10;;;9.30;67.40;;;;;;5013869;28;20029;-70
2021/10/15 04:48:09;;;;;;;6.23;2.77;;;9.30;67.40;;;;;;5013663;28;20034;-70
2021/10/15 04:50:36;;;;;;;5.37;3.13;;;9.30;67.90;;;;;;5013814;28;20030;-70
2021/10/15 04:53:04;;;;;;;7.23;2.70;;;9.30;68.00;;;;;;5013789;28;20409;-72
2021/10/15 04:55:30;;;;;;;7.97;2.83;;;9.30;68.50;;;;;;5013651;28;20395;-70
2021/10/15 04:58:00;;;;;;;9.47;3.07;;;9.30;67.90;;;;;;5013704;28;20026;-70
2021/10/15 05:00:27;;;;;;;7.27;2.83;;;9.30;68.10;;;;;;5013352;28;20029;-70
2021/10/15 05:02:53;;;;;;;7.43;3.37;;;9.30;68.10;;;;;;5013435;28;20069;-71
2021/10/15 05:05:27;;;;;;;5.40;2.87;;;9.30;68.00;;;;;;5013500;28;20104;-70
2021/10/15 05:07:53;;;;;;;7.33;2.80;;;9.40;67.90;;;;;;5013781;28;20029;-71
2021/10/15 05:10:22;;;;;;;8.37;2.73;;;9.40;67.70;;;;;;5013532;28;20030;-71
2021/10/15 05:12:49;;;;;;;6.03;2.93;;;9.40;68.00;;;;;;5013335;28;20088;-71
2021/10/15 05:15:16;;;;;;;4.33;2.80;;;9.40;67.70;;;;;;5013585;28;20025;-70
2021/10/15 05:17:41;;;;;;;5.73;2.80;;;9.40;67.60;;;;;;5012411;28;20495;-70
2021/10/15 05:20:11;;;;;;;4.90;2.87;;;9.40;67.40;;;;;;5013567;28;20080;-71
2021/10/15 05:22:36;;;;;;;4.70;2.80;;;9.50;67.40;;;;;;5013688;28;20474;-71
2021/10/15 05:25:04;;;;;;;5.80;3.07;;;9.40;67.40;;;;;;5011905;28;20029;-70
2021/10/15 05:27:31;;;;;;;5.57;2.77;;;9.40;67.50;;;;;;5013094;28;20382;-71
2021/10/15 05:29:58;;;;;;;7.80;3.23;;;9.40;67.60;;;;;;5013074;28;20498;-71
2021/10/15 05:32:24;;;;;;;10.90;3.30;;;9.40;67.50;;;;;;5013192;28;20033;-71
2021/10/15 05:34:50;;;;;;;7.93;4.20;;;9.40;67.50;;;;;;5013234;28;20471;-71
2021/10/15 05:37:16;;;;;;;8.03;3.80;;;9.40;67.50;;;;;;5013248;28;20033;-71
2021/10/15 05:39:43;;;;;;;9.80;2.83;;;9.50;67.80;;;;;;5013152;28;20072;-71
2021/10/15 05:42:08;;;;;;;6.47;3.37;;;9.40;67.60;;;;;;5013489;28;20034;-71
2021/10/15 05:44:34;;;;;;;6.37;3.07;;;9.40;67.80;;;;;;5013142;28;20040;-71
2021/10/15 05:47:04;;;;;;;9.67;3.53;;;9.40;67.80;;;;;;5012969;28;20420;-71
2021/10/15 05:49:31;;;;;;;5.57;3.40;;;9.40;67.80;;;;;;5012837;28;20068;-71
2021/10/15 05:52:08;;;;;;;5.97;3.30;;;9.40;68.00;;;;;;5011522;28;20030;-70
2021/10/15 05:59:50;;;;;;;5.93;3.13;;;9.40;68.70;;;;;;5012644;28;20390;-70
2021/10/15 06:02:15;;;;;;;8.93;3.20;;;9.40;68.60;;;;;;5011575;28;20022;-71
2021/10/15 06:09:02;;;;;;;3.67;2.43;;;9.40;68.30;;;;;;5013041;28;20426;-72
2021/10/15 06:15:30;;;;;;;18.93;3.10;;;9.50;68.10;;;;;;5012618;28;20057;-69
2021/10/15 06:17:56;;;;;;;5.80;2.77;;;9.60;68.30;;;;;;5012477;28;20034;-71
2021/10/15 06:20:23;;;;;;;5.60;2.90;;;9.60;68.00;;;;;;5017336;28;20075;-71
2021/10/15 06:22:49;;;;;;;7.37;2.70;;;9.60;68.30;;;;;;5032294;28;20509;-71
2021/10/15 06:25:15;;;;;;;3.50;2.40;;;9.70;68.30;;;;;;5031624;28;20025;-70
2021/10/15 06:27:40;;;;;;;5.50;2.80;;;9.70;68.10;;;;;;5028771;28;20060;-71
2021/10/15 06:30:07;;;;;;;5.17;2.67;;;9.80;68.20;;;;;;5002470;28;20046;-70
2021/10/15 06:32:33;;;;;;;5.23;2.60;;;9.80;68.40;;;;;;5035874;28;20101;-72
2021/10/15 06:34:58;;;;;;;5.47;2.47;;;9.80;68.40;;;;;;5035644;28;20108;-70
2021/10/15 06:37:25;;;;;;;7.80;2.80;;;10.00;72.60;;;;;;5035607;28;20108;-71
2021/10/15 06:39:51;;;;;;;4.90;2.93;;;9.90;68.10;;;;;;5035585;28;20017;-71
2021/10/15 06:42:17;;;;;;;10.10;2.27;;;10.00;68.00;;;;;;5035470;28;20052;-71
2021/10/15 06:44:43;;;;;;;5.27;2.70;;;10.10;67.80;;;;;;5035721;28;20078;-69
2021/10/15 06:47:09;;;;;;;7.97;2.40;;;10.10;67.60;;;;;;5035676;28;20109;-71
2021/10/15 06:49:34;;;;;;;8.20;2.97;;;10.20;67.20;;;;;;5035423;28;20390;-70
2021/10/15 06:52:00;;;;;;;10.27;2.73;;;10.20;67.10;;;;;;5035235;28;20028;-70
2021/10/15 06:54:26;;;;;;;7.30;2.90;;;10.30;76.10;;;;;;5034973;28;20084;-70
2021/10/15 06:56:51;;;;;;;9.93;3.00;;;10.30;68.70;;;;;;5034266;28;20036;-70
2021/10/15 06:59:17;;;;;;;7.13;3.00;;;10.40;67.40;;;;;;5034401;28;20024;-69
2021/10/15 07:01:43;;;;;;;10.20;2.83;;;10.40;67.20;;;;;;5033666;28;20105;-70
2021/10/15 07:04:09;;;;;;;4.23;2.60;;;10.50;67.00;;;;;;5034753;28;20061;-70
2021/10/15 07:06:35;;;;;;;4.93;3.00;;;10.50;66.80;;;;;;5034740;28;20021;-70
2021/10/15 07:09:01;;;;;;;6.38;2.80;;;10.60;66.70;;;;;;5034822;28;20014;-70
2021/10/15 07:11:26;;;;;;;6.38;2.60;;;10.60;66.50;;;;;;5032331;28;20026;-71
2021/10/15 07:13:52;;;;;;;6.90;2.35;;;10.70;66.20;;;;;;5034598;28;20025;-70
2021/10/15 07:16:18;;;;;;;4.00;2.30;;;10.80;66.20;;;;;;5033788;28;20025;-72
2021/10/15 07:18:44;;;;;;;4.33;2.30;;;10.80;65.70;;;;;;5033401;28;20026;-75
2021/10/15 07:21:10;;;;;;;5.55;2.38;;;10.90;65.40;;;;;;5032310;28;20075;-70
2021/10/15 07:23:37;;;;;;;4.13;2.27;;;10.90;65.30;;;;;;5033294;28;20025;-71
2021/10/15 07:26:05;;;;;;;10.43;5.50;;;11.00;65.20;;;;;;5032543;28;20018;-71
2021/10/15 07:28:30;;;;;;;14.82;5.70;;;11.10;67.30;;;;;;5033014;28;20104;-71
2021/10/15 07:30:58;;;;;;;9.20;5.23;;;11.20;66.50;;;;;;5032435;28;20046;-72
2021/10/15 07:33:24;;;;;;;12.93;4.82;;;11.20;66.20;;;;;;5033314;28;20037;-71
2021/10/15 07:35:50;;;;;;;14.90;4.85;;;11.30;66.50;;;;;;5034661;28;20417;-71
2021/10/15 07:38:15;;;;;;;8.48;4.60;;;11.40;67.70;;;;;;5033875;28;20025;-71
2021/10/15 07:40:41;;;;;;;11.00;4.75;;;11.40;66.90;;;;;;5046626;28;20086;-72
2021/10/15 07:43:07;;;;;;;10.52;4.60;;;11.40;66.60;;;;;;5031817;28;20017;-71
2021/10/15 07:45:33;;;;;;;12.65;5.25;;;11.60;70.10;;;;;;5032826;28;20025;-70
2021/10/15 07:48:00;;;;;;;10.57;4.72;;;11.60;70.90;;;;;;5033722;28;20021;-69
2021/10/15 07:50:25;;;;;;;8.30;5.35;;;11.60;66.70;;;;;;5034394;28;20018;-70
2021/10/15 07:52:51;;;;;;;9.18;3.83;;;11.60;67.00;;;;;;5033643;28;20596;-68
2021/10/15 07:55:17;;;;;;;14.00;4.38;;;11.70;66.30;;;;;;5033228;28;20053;-69
2021/10/15 07:57:43;;;;;;;15.98;4.15;;;11.80;65.90;;;;;;5034245;28;20013;-69
2021/10/15 08:00:10;;;;;;;10.80;4.70;;;11.80;66.30;;;;;;5033885;28;20029;-70
2021/10/15 08:02:36;;;;;;;8.68;4.07;;;11.90;66.20;;;;;;5034046;28;20100;-70
2021/10/15 08:05:03;;;;;;;10.20;4.18;;;12.00;66.20;;;;;;5034275;28;20109;-69
2021/10/15 08:07:29;;;;;;;7.90;4.20;;;12.00;65.70;;;;;;5034121;28;20108;-69
2021/10/15 08:09:55;;;;;;;7.13;3.88;;;12.10;65.60;;;;;;5034238;28;20096;-69
2021/10/15 08:12:20;;;;;;;11.43;4.18;;;12.10;65.40;;;;;;5034113;28;20076;-68
2021/10/15 08:14:46;;;;;;;7.47;3.70;;;12.20;64.90;;;;;;5034195;28;20033;-69
2021/10/15 08:17:12;;;;;;;13.45;3.92;;;12.30;64.80;;;;;;5033808;28;20419;-70
2021/10/15 08:19:41;;;;;;;6.57;3.03;;;12.30;64.50;;;;;;5033626;28;20469;-69
2021/10/15 08:22:08;;;;;;;7.10;3.10;;;12.40;64.00;;;;;;5032897;28;20029;-69
2021/10/15 08:24:33;;;;;;;8.73;3.95;;;12.50;63.50;;;;;;5033288;28;20025;-69
2021/10/15 08:26:59;;;;;;;6.38;2.92;;;12.50;62.90;;;;;;5033200;28;20120;-69
2021/10/15 08:29:25;;;;;;;4.00;2.90;;;12.60;62.40;;;;;;5032815;28;20029;-70
2021/10/15 08:31:51;;;;;;;5.40;2.88;;;12.70;62.20;;;;;;5033673;28;20151;-70
2021/10/15 08:34:18;;;;;;;8.05;2.92;;;12.70;62.10;;;;;;5033360;28;20486;-70
2021/10/15 08:36:45;;;;;;;11.65;2.63;;;12.80;61.60;;;;;;5033722;28;20021;-70
2021/10/15 08:39:11;;;;;;;5.30;3.05;;;12.80;61.60;;;;;;5032576;28;20021;-70
2021/10/15 08:41:37;;;;;;;6.03;2.88;;;12.90;62.20;;;;;;5033419;28;20504;-70
2021/10/15 08:44:04;;;;;;;6.03;2.67;;;13.00;62.10;;;;;;5033309;28;20022;-70
2021/10/15 08:46:31;;;;;;;5.05;2.75;;;13.00;61.50;;;;;;5032035;28;20021;-70
2021/10/15 08:48:56;;;;;;;5.13;2.80;;;13.10;61.60;;;;;;5032468;28;20049;-70
2021/10/15 08:51:23;;;;;;;7.40;2.78;;;13.20;61.90;;;;;;5032327;28;20111;-70
2021/10/15 08:53:58;;;;;;;7.55;3.05;;;13.20;61.80;;;;;;5033147;28;20684;-70
2021/10/15 08:56:30;;;;;;;7.20;2.70;;;13.30;61.80;;;;;;5033030;28;20514;-70
2021/10/15 08:59:04;;;;;;;14.15;2.97;;;13.40;61.20;;;;;;5033782;28;20550;-71
2021/10/15 09:01:47;;;;;;;7.30;2.67;;;13.40;60.40;;;;;;5033606;28;20025;-70
2021/10/15 09:04:18;;;;;;;7.57;2.70;;;13.50;60.20;;;;;;5033729;28;20021;-70
2021/10/15 09:06:47;;;;;;;7.07;2.40;;;13.60;59.90;;;;;;5033649;28;20014;-70
2021/10/15 09:09:13;;;;;;;4.93;2.25;;;13.60;59.50;;;;;;5033355;28;20021;-70
2021/10/15 09:11:40;;;;;;;10.00;3.30;;;13.60;59.50;;;;;;5033715;28;20481;-69
2021/10/15 09:14:08;;;;;;;4.90;1.95;;;13.80;59.70;;;;;;5033327;28;20120;-70
2021/10/15 09:16:57;;;;;;;4.40;2.20;;;13.80;58.90;;;;;;5033540;28;20017;-70
2021/10/15 09:19:29;;;;;;;4.72;2.00;;;13.90;58.60;;;;;;5033195;28;20103;-70
2021/10/15 09:22:22;;;;;;;5.30;2.00;;;14.00;58.70;;;;;;5033186;28;20024;-69
2021/10/15 09:24:48;;;;;;;4.22;2.17;;;14.10;58.60;;;;;;5033277;28;20416;-69
2021/10/15 09:27:15;;;;;;;3.15;1.70;;;14.20;58.50;;;;;;5033252;28;20124;-70
2021/10/15 09:29:50;;;;;;;6.05;1.88;;;14.20;57.70;;;;;;5032859;28;20394;-69
2021/10/15 09:32:17;;;;;;;3.35;1.83;;;14.30;57.10;;;;;;5033310;28;20033;-69
2021/10/15 09:34:44;;;;;;;6.28;2.00;;;14.40;56.80;;;;;;5033189;28;20474;-70
2021/10/15 09:37:16;;;;;;;6.65;2.00;;;14.40;57.10;;;;;;5032007;28;20892;-70
2021/10/15 09:39:42;;;;;;;4.13;2.03;;;14.50;56.80;;;;;;5032981;28;20466;-70
2021/10/15 09:42:28;;;;;;;3.30;1.52;;;14.60;56.60;;;;;;5032760;28;20100;-69
2021/10/15 09:45:00;;;;;;;3.03;1.63;;;14.60;55.90;;;;;;5032940;28;20026;-70
2021/10/15 09:47:26;;;;;;;4.88;1.75;;;14.70;56.00;;;;;;5033036;28;20072;-70
2021/10/15 09:50:05;;;;;;;4.88;1.67;;;14.70;56.00;;;;;;5032903;28;20124;-69
2021/10/15 09:52:35;;;;;;;5.03;1.35;;;14.80;55.50;;;;;;5033247;28;20425;-70
2021/10/15 09:55:31;;;;;;;2.13;1.50;;;14.90;55.60;;;;;;5033062;28;20036;-70
2021/10/15 09:58:24;;;;;;;6.03;1.80;;;15.00;55.20;;;;;;5027746;28;20037;-70
2021/10/15 10:00:50;;;;;;;;;;;15.00;54.70;;;;;;5031832;28;20160;-70
2021/10/15 10:03:18;;;;;;;1.90;1.30;;;15.10;53.70;;;;;;5032047;28;20277;-70
2021/10/15 10:05:44;;;;;;;2.72;1.50;;;15.10;54.50;;;;;;5036957;28;20048;-70
2021/10/15 10:08:11;;;;;;;4.20;2.30;;;15.20;55.10;;;;;;5037156;28;20029;-70
2021/10/15 10:10:38;;;;;;;4.43;1.67;;;15.30;55.20;;;;;;5036724;28;20424;-69
2021/10/15 10:13:06;;;;;;;3.20;1.55;;;15.30;54.80;;;;;;5036464;28;20037;-70
2021/10/15 10:15:37;;;;;;;3.45;1.40;;;15.40;54.00;;;;;;5036713;28;20382;-69
2021/10/15 10:18:18;;;;;;;3.58;1.92;;;15.50;54.30;;;;;;5036606;28;20033;-70
2021/10/15 10:21:17;;;;;;;3.58;2.10;;;15.60;54.20;;;;;;5036551;28;20135;-70
2021/10/15 10:23:49;;;;;;;4.15;1.63;;;15.60;54.40;;;;;;5035856;28;20544;-70
2021/10/15 10:26:21;;;;;;;4.00;1.67;;;15.70;53.90;;;;;;5036540;28;20026;-70
2021/10/15 10:29:00;;;;;;;;;;;15.80;54.20;;;;;;5037028;28;21290;-70
2021/10/15 10:31:25;;;;;;;3.72;1.40;;;15.90;54.20;;;;;;5036220;28;19916;-69
2021/10/15 10:33:52;;;;;;;3.00;1.30;;;15.90;52.70;;;;;;5036205;28;20064;-69
2021/10/15 10:36:19;;;;;;;2.20;1.40;;;16.00;52.90;;;;;;5036367;28;20044;-70
2021/10/15 10:38:44;;;;;;;2.75;1.50;;;16.00;52.10;;;;;;5036163;28;20104;-70
2021/10/15 10:41:16;;;;;;;2.92;1.50;;;16.10;52.80;;;;;;5036175;28;20045;-70
2021/10/15 10:43:44;;;;;;;2.65;1.42;;;16.10;52.30;;;;;;5036075;28;20030;-69
2021/10/15 10:46:15;;;;;;;2.35;1.33;;;16.20;52.00;;;;;;5036282;28;20051;-69
2021/10/15 10:48:47;;;;;;;3.83;1.20;;;16.20;51.60;;;;;;5036113;28;20026;-70
2021/10/15 10:51:16;;;;;;;2.58;1.15;;;16.30;51.50;;;;;;5035869;28;20025;-70
2021/10/15 10:54:05;;;;;;;2.83;0.80;;;16.40;51.90;;;;;;5035728;28;20065;-69
2021/10/15 10:56:44;;;;;;;1.67;1.20;;;16.40;51.00;;;;;;5036079;28;20030;-69
2021/10/15 11:01:47;;;;;;;3.40;1.10;;;16.60;50.90;;;;;;5033040;28;20068;-70
2021/10/15 11:04:28;;;;;;;2.10;1.30;;;16.70;50.30;;;;;;5034495;28;20072;-70
2021/10/15 11:06:58;;;;;;;2.47;1.15;;;16.70;49.60;;;;;;5035692;28;20037;-70
2021/10/15 11:09:41;;;;;;;2.17;1.05;;;16.70;50.30;;;;;;5035901;28;20033;-69
2021/10/15 11:12:09;;;;;;;1.48;0.85;;;16.80;50.30;;;;;;5035950;28;20025;-70
2021/10/15 11:15:00;;;;;;;1.67;1.10;;;16.80;50.20;;;;;;5033139;28;20057;-69
2021/10/15 11:17:28;;;;;;;2.20;1.00;;;16.90;50.30;;;;;;5035556;28;20488;-70
2021/10/15 11:20:20;;;;;;;1.00;0.82;;;16.90;50.60;;;;;;5035275;28;20014;-70
2021/10/15 11:22:57;;;;;;;1.98;1.00;;;17.00;50.60;;;;;;5034541;28;20476;-70
2021/10/15 11:25:28;;;;;;;2.50;1.10;;;17.10;50.20;;;;;;5031085;28;20045;-70
2021/10/15 11:28:19;;;;;;;2.28;1.20;;;17.10;49.10;;;;;;5032325;28;20496;-69
2021/10/15 11:30:49;;;;;;;2.95;1.10;;;17.20;50.50;;;;;;5028250;28;20053;-70
2021/10/15 11:33:18;;;;;;;1.92;1.10;;;17.20;50.70;;;;;;5035095;28;20068;-69
2021/10/15 11:35:46;;;;;;;6.85;1.20;;;17.30;49.90;;;;;;5035174;28;20390;-70
2021/10/15 11:38:26;;;;;;;2.15;1.10;;;17.30;50.00;;;;;;5034769;28;20132;-69
2021/10/15 11:40:52;;;;;;;2.35;1.00;;;17.40;50.20;;;;;;5034813;28;20099;-70
2021/10/15 11:43:22;;;;;;;1.83;1.10;;;17.50;49.70;;;;;;5034832;28;20033;-70
2021/10/15 11:45:54;;;;;;;1.60;1.15;;;17.50;49.30;;;;;;5034336;28;20470;-70
2021/10/15 11:48:26;;;;;;;2.13;0.97;;;17.60;49.20;;;;;;5034571;28;20029;-69
2021/10/15 11:51:26;;;;;;;3.58;1.52;;;17.60;48.80;;;;;;5034858;28;20260;-69
2021/10/15 11:54:01;;;;;;;1.52;0.95;;;17.60;49.30;;;;;;5026951;28;20118;-70
2021/10/15 11:56:32;;;;;;;2.10;1.02;;;17.60;49.90;;;;;;5034598;28;20363;-70
2021/10/15 11:59:05;;;;;;;3.28;1.05;;;17.70;49.80;;;;;;5034940;28;20064;-70
2021/10/15 12:01:36;;;;;;;2.00;1.10;;;17.70;50.00;;;;;;5034429;28;20022;-70
2021/10/15 12:04:10;;;;;;;6.90;1.30;;;17.70;49.70;;;;;;5034643;28;20048;-70
2021/10/15 12:06:46;;;;;;;1.52;0.90;;;17.80;48.90;;;;;;5034487;28;20096;-70
2021/10/15 12:09:12;;;;;;;2.47;0.90;;;17.80;49.20;;;;;;5034376;28;20028;-70
2021/10/15 12:11:39;;;;;;;1.98;1.00;;;17.90;49.40;;;;;;5034442;28;20017;-70
2021/10/15 12:14:23;;;;;;;7.32;1.10;;;17.90;49.10;;;;;;5034412;28;20367;-69
2021/10/15 12:16:49;;;;;;;2.25;1.17;;;18.00;49.50;;;;;;5034479;28;20022;-70
2021/10/15 12:19:17;;;;;;;4.22;0.90;;;18.00;48.40;;;;;;5034303;28;20160;-69
2021/10/15 12:21:45;;;;;;;2.00;1.15;;;18.10;48.60;;;;;;5034399;28;20425;-70
2021/10/15 12:24:51;;;;;;;1.67;1.00;;;18.10;48.30;;;;;;5034125;28;20017;-70
2021/10/15 12:27:24;;;;;;;2.03;1.08;;;18.10;49.20;;;;;;5026493;28;20037;-70
2021/10/15 12:29:56;;;;;;;2.95;1.05;;;18.20;48.90;;;;;;5033611;28;20414;-69
2021/10/15 12:32:29;;;;;;;1.30;0.85;;;18.30;49.00;;;;;;5034053;28;20025;-70
2021/10/15 12:35:08;;;;;;;2.67;1.08;;;18.40;49.20;;;;;;5034072;28;20029;-69
2021/10/15 12:37:40;;;;;;;3.55;1.30;;;18.40;49.10;;;;;;5034056;28;20024;-70
2021/10/15 12:40:09;;;;;;;;;;;18.40;49.50;;;;;;5034436;28;20029;-69
2021/10/15 12:42:34;;;;;;;5.38;1.08;;;18.50;47.90;;;;;;5033627;28;20356;-70
2021/10/15 12:45:06;;;;;;;2.85;1.40;;;18.40;48.80;;;;;;5032620;28;20053;-69
2021/10/15 12:47:32;;;;;;;3.30;1.35;;;18.40;49.40;;;;;;5033851;28;20033;-69
2021/10/15 12:50:03;;;;;;;4.30;1.15;;;18.40;48.30;;;;;;5033747;28;20021;-69
2021/10/15 12:52:31;;;;;;;4.47;1.13;;;18.40;47.90;;;;;;5033696;28;20481;-69
2021/10/15 12:54:57;;;;;;;1.85;0.90;;;18.40;48.30;;;;;;5033286;28;20044;-70
2021/10/15 12:57:34;;;;;;;7.57;1.95;;;18.40;48.30;;;;;;5033481;28;20021;-70
2021/10/15 13:00:05;;;;;;;3.33;1.23;;;18.40;47.40;;;;;;5048890;28;20037;-69
2021/10/15 13:02:31;;;;;;;2.33;1.33;;;18.40;47.80;;;;;;5033567;28;20021;-70
2021/10/15 13:05:02;;;;;;;2.85;1.00;;;18.40;48.10;;;;;;5032672;28;20046;-70
2021/10/15 13:07:28;;;;;;;3.88;1.23;;;18.40;48.90;;;;;;5032942;28;20081;-69
2021/10/15 13:09:56;;;;;;;4.63;1.40;;;18.40;49.00;;;;;;5029669;28;20117;-69
2021/10/15 13:12:22;;;;;;;3.20;1.20;;;18.40;48.90;;;;;;5030637;28;20032;-69